createdAt,value
2019-04-10T00:00:10.630Z,3.60
2019-04-10T00:02:39.833Z,3.40
2019-04-10T00:05:08.199Z,3.40
2019-04-10T00:07:39.532Z,3.40
2019-04-10T00:10:09.734Z,3.40
2019-04-10T00:12:38.888Z,3.50
2019-04-10T00:15:09.215Z,3.40
2019-04-10T00:17:38.271Z,3.40
2019-04-10T00:20:07.842Z,3.40
2019-04-10T00:22:36.815Z,3.30
2019-04-10T00:25:06.141Z,3.20
2019-04-10T00:27:35.132Z,3.20
2019-04-10T00:30:04.892Z,3.20
2019-04-10T00:32:34.203Z,3.10
2019-04-10T00:35:02.531Z,3.00
2019-04-10T00:37:32.618Z,3.10
2019-04-10T00:40:01.857Z,3.20
2019-04-10T00:42:30.556Z,3.20
2019-04-10T00:44:59.737Z,3.10
2019-04-10T00:47:28.792Z,3.10
2019-04-10T00:49:57.921Z,3.10
2019-04-10T00:52:26.868Z,3.10
2019-04-10T00:54:55.557Z,3.10
2019-04-10T00:57:24.239Z,3.00
2019-04-10T00:59:53.109Z,3.00
2019-04-10T01:02:22.668Z,3.10
2019-04-10T01:04:51.664Z,3.00
2019-04-10T01:07:32.699Z,2.90
2019-04-10T01:09:50.952Z,2.90
2019-04-10T01:12:19.658Z,3.00
2019-04-10T01:14:48.362Z,2.90
2019-04-10T01:17:17.018Z,2.80
2019-04-10T01:19:45.698Z,2.90
2019-04-10T01:22:14.946Z,2.90
2019-04-10T01:24:43.984Z,2.90
2019-04-10T01:27:12.638Z,2.90
2019-04-10T01:29:41.921Z,2.90
2019-04-10T01:32:11.902Z,2.80
2019-04-10T01:34:41.258Z,2.80
2019-04-10T01:37:08.947Z,2.80
2019-04-10T01:39:38.074Z,2.70
2019-04-10T01:42:08.135Z,2.70
2019-04-10T01:44:37.199Z,2.70
2019-04-10T01:47:06.721Z,2.80
2019-04-10T01:49:35.827Z,2.70
2019-04-10T01:52:04.804Z,2.70
2019-04-10T01:54:33.292Z,2.70
2019-04-10T01:57:02.048Z,2.60
2019-04-10T01:59:32.309Z,2.60
2019-04-10T02:02:03.045Z,2.50
2019-04-10T02:04:33.043Z,2.60
2019-04-10T02:07:02.212Z,2.60
2019-04-10T02:09:31.677Z,2.40
2019-04-10T02:12:00.706Z,2.40
2019-04-10T02:14:30.016Z,2.30
2019-04-10T02:16:59.060Z,2.40
2019-04-10T02:19:27.771Z,2.40
2019-04-10T02:21:56.379Z,2.40
2019-04-10T02:24:25.258Z,2.30
2019-04-10T02:26:54.048Z,2.40
2019-04-10T02:29:23.792Z,2.40
2019-04-10T02:31:53.383Z,2.50
2019-04-10T02:34:23.713Z,2.40
2019-04-10T02:36:55.304Z,2.40
2019-04-10T02:39:33.526Z,2.40
2019-04-10T02:41:56.201Z,2.50
2019-04-10T02:44:27.964Z,2.40
2019-04-10T02:46:57.934Z,2.50
2019-04-10T02:49:27.855Z,2.50
2019-04-10T02:51:57.087Z,2.40
2019-04-10T02:54:26.934Z,2.20
2019-04-10T02:56:56.900Z,2.30
2019-04-10T02:59:27.004Z,2.40
2019-04-10T03:01:56.298Z,2.30
2019-04-10T03:04:26.750Z,2.30
2019-04-10T03:06:55.594Z,2.30
2019-04-10T03:09:38.734Z,2.20
2019-04-10T03:11:53.420Z,2.20
2019-04-10T03:14:22.111Z,2.20
2019-04-10T03:16:51.458Z,2.10
2019-04-10T03:19:21.331Z,2.20
2019-04-10T03:21:51.281Z,2.20
2019-04-10T03:24:21.283Z,2.30
2019-04-10T03:26:50.370Z,2.20
2019-04-10T03:29:19.893Z,2.10
2019-04-10T03:31:50.513Z,2.00
2019-04-10T03:34:22.604Z,2.00
2019-04-10T03:36:51.816Z,2.10
2019-04-10T03:39:21.521Z,2.00
2019-04-10T03:41:50.606Z,1.90
2019-04-10T03:44:19.241Z,2.00
2019-04-10T03:46:48.937Z,2.00
2019-04-10T03:49:17.962Z,1.90
2019-04-10T03:51:47.114Z,1.90
2019-04-10T03:54:16.045Z,2.00
2019-04-10T03:56:45.658Z,2.00
2019-04-10T03:59:14.566Z,1.90
2019-04-10T04:01:43.163Z,1.90
2019-04-10T04:04:11.753Z,1.90
2019-04-10T04:06:40.351Z,1.80
2019-04-10T04:09:11.658Z,1.90
2019-04-10T04:11:39.983Z,1.90
2019-04-10T04:14:08.201Z,2.00
2019-04-10T04:16:37.337Z,2.00
2019-04-10T04:19:05.919Z,2.00
2019-04-10T04:21:34.400Z,2.00
2019-04-10T04:24:03.649Z,2.00
2019-04-10T04:26:32.626Z,2.00
2019-04-10T04:29:02.048Z,1.90
2019-04-10T04:31:31.234Z,1.90
2019-04-10T04:33:59.795Z,2.00
2019-04-10T04:36:28.704Z,1.90
2019-04-10T04:38:57.740Z,1.90
2019-04-10T04:41:25.528Z,1.90
2019-04-10T04:43:53.861Z,1.90
2019-04-10T04:46:22.455Z,2.00
2019-04-10T04:48:52.190Z,2.00
2019-04-10T04:51:21.958Z,2.10
2019-04-10T04:53:50.893Z,2.00
2019-04-10T04:56:19.917Z,2.10
2019-04-10T04:58:49.696Z,2.00
2019-04-10T05:01:18.995Z,2.00
2019-04-10T05:03:48.244Z,2.00
2019-04-10T05:06:18.127Z,2.10
2019-04-10T05:08:47.078Z,2.10
2019-04-10T05:11:15.782Z,2.00
2019-04-10T05:13:44.383Z,2.00
2019-04-10T05:16:13.034Z,2.00
2019-04-10T05:18:41.726Z,2.10
2019-04-10T05:21:10.620Z,2.10
2019-04-10T05:23:38.984Z,2.20
2019-04-10T05:26:08.159Z,2.20
2019-04-10T05:28:38.082Z,2.20
2019-04-10T05:31:07.103Z,2.20
2019-04-10T05:33:36.714Z,2.20
2019-04-10T05:36:06.857Z,2.30
2019-04-10T05:38:35.930Z,2.40
2019-04-10T05:41:04.812Z,2.40
2019-04-10T05:43:34.185Z,2.40
2019-04-10T05:46:03.187Z,2.40
2019-04-10T05:48:31.859Z,2.40
2019-04-10T05:51:04.305Z,2.40
2019-04-10T05:53:32.365Z,2.50
2019-04-10T05:56:01.538Z,2.50
2019-04-10T05:58:31.418Z,2.60
2019-04-10T06:01:02.111Z,2.70
2019-04-10T06:03:31.075Z,2.80
2019-04-10T06:06:01.135Z,2.90
2019-04-10T06:08:31.187Z,2.90
2019-04-10T06:11:00.273Z,2.90
2019-04-10T06:13:28.982Z,3.00
2019-04-10T06:15:57.644Z,3.00
2019-04-10T06:18:27.170Z,3.00
2019-04-10T06:20:56.680Z,3.10
2019-04-10T06:23:25.690Z,3.10
2019-04-10T06:25:54.348Z,3.20
2019-04-10T06:28:24.698Z,3.20
2019-04-10T06:30:54.489Z,3.30
2019-04-10T06:33:24.341Z,3.30
2019-04-10T06:35:55.132Z,3.40
2019-04-10T06:38:24.113Z,3.50
2019-04-10T06:40:52.797Z,3.60
2019-04-10T06:43:22.554Z,3.80
2019-04-10T06:45:52.380Z,3.90
2019-04-10T06:48:20.775Z,3.90
2019-04-10T06:50:49.427Z,4.00
2019-04-10T06:53:18.703Z,4.10
2019-04-10T06:55:48.828Z,4.20
2019-04-10T06:58:17.923Z,4.30
2019-04-10T07:00:48.637Z,4.30
2019-04-10T07:03:17.211Z,4.40
2019-04-10T07:06:00.430Z,4.40
2019-04-10T07:08:20.507Z,4.50
2019-04-10T07:10:54.156Z,4.50
2019-04-10T07:13:17.997Z,4.60
2019-04-10T07:15:47.027Z,4.70
2019-04-10T07:18:17.302Z,4.70
2019-04-10T07:20:46.341Z,4.70
2019-04-10T07:23:23.358Z,4.80
2019-04-10T07:25:47.264Z,4.80
2019-04-10T07:28:17.432Z,4.90
2019-04-10T07:30:46.009Z,5.00
2019-04-10T07:33:16.749Z,5.10
2019-04-10T07:35:46.381Z,5.10
2019-04-10T07:38:15.968Z,5.20
2019-04-10T07:40:45.040Z,5.30
2019-04-10T07:43:13.708Z,5.30
2019-04-10T07:45:42.385Z,5.30
2019-04-10T07:48:10.991Z,5.40
2019-04-10T07:50:39.568Z,5.40
2019-04-10T07:53:08.430Z,5.40
2019-04-10T07:55:37.387Z,5.60
2019-04-10T07:58:06.857Z,5.60
2019-04-10T08:00:36.648Z,5.60
2019-04-10T08:03:06.297Z,5.60
2019-04-10T08:05:35.476Z,5.70
2019-04-10T08:08:05.166Z,5.70
2019-04-10T08:10:34.805Z,5.70
2019-04-10T08:13:04.540Z,5.80
2019-04-10T08:15:33.721Z,5.80
2019-04-10T08:18:02.618Z,5.90
2019-04-10T08:20:31.027Z,5.90
2019-04-10T08:22:59.720Z,6.00
2019-04-10T08:25:29.139Z,6.10
2019-04-10T08:27:58.507Z,6.10
2019-04-10T08:30:27.970Z,6.20
2019-04-10T08:33:00.707Z,6.30
2019-04-10T08:35:25.684Z,6.40
2019-04-10T08:37:54.350Z,6.40
2019-04-10T08:40:23.195Z,6.50
2019-04-10T08:42:51.664Z,6.40
2019-04-10T08:45:21.040Z,6.50
2019-04-10T08:47:50.821Z,6.60
2019-04-10T08:50:19.889Z,6.70
2019-04-10T08:52:48.719Z,6.80
2019-04-10T08:55:17.751Z,7.00
2019-04-10T08:57:45.903Z,7.00
2019-04-10T09:00:14.546Z,7.10
2019-04-10T09:02:44.381Z,7.20
2019-04-10T09:05:13.346Z,7.20
2019-04-10T09:07:41.968Z,7.20
2019-04-10T09:10:10.753Z,7.30
2019-04-10T09:12:39.414Z,7.30
2019-04-10T09:15:08.082Z,7.40
2019-04-10T09:17:37.658Z,7.60
2019-04-10T09:20:07.122Z,7.80
2019-04-10T09:22:56.057Z,7.90
2019-04-10T09:25:06.963Z,8.00
2019-04-10T09:27:35.994Z,8.20
2019-04-10T09:30:06.728Z,8.30
2019-04-10T09:32:36.786Z,8.30
2019-04-10T09:35:06.634Z,8.20
2019-04-10T09:37:35.620Z,8.10
2019-04-10T09:40:06.233Z,8.10
2019-04-10T09:42:35.418Z,8.10
2019-04-10T09:45:04.753Z,8.00
2019-04-10T09:47:34.722Z,8.10
2019-04-10T09:50:05.582Z,8.00
2019-04-10T09:52:35.654Z,8.10
2019-04-10T09:55:05.612Z,8.00
2019-04-10T09:57:34.671Z,8.10
2019-04-10T10:00:03.377Z,8.10
2019-04-10T10:02:31.761Z,8.10
2019-04-10T10:05:00.375Z,8.20
2019-04-10T10:07:28.987Z,8.20
2019-04-10T10:09:59.677Z,8.10
2019-04-10T10:12:28.258Z,8.10
2019-04-10T10:14:57.001Z,8.00
2019-04-10T10:17:25.649Z,8.00
2019-04-10T10:19:55.277Z,8.00
2019-04-10T10:22:25.181Z,8.00
2019-04-10T10:24:55.254Z,7.90
2019-04-10T10:27:24.773Z,7.80
2019-04-10T10:29:54.914Z,7.80
2019-04-10T10:32:24.708Z,7.90
2019-04-10T10:34:54.543Z,7.90
2019-04-10T10:37:24.177Z,7.80
2019-04-10T10:39:53.132Z,7.80
2019-04-10T10:42:21.813Z,8.00
2019-04-10T10:44:50.470Z,8.00
2019-04-10T10:47:20.129Z,8.20
2019-04-10T10:49:49.119Z,8.40
2019-04-10T10:52:17.883Z,8.40
2019-04-10T10:54:47.258Z,8.60
2019-04-10T10:57:17.176Z,8.70
2019-04-10T10:59:46.195Z,8.80
2019-04-10T11:02:14.857Z,8.80
2019-04-10T11:04:43.541Z,8.90
2019-04-10T11:07:12.126Z,8.90
2019-04-10T11:09:41.751Z,9.00
2019-04-10T11:12:12.176Z,9.10
2019-04-10T11:14:41.347Z,9.10
2019-04-10T11:17:09.979Z,9.00
2019-04-10T11:19:39.463Z,8.90
2019-04-10T11:22:09.386Z,9.00
2019-04-10T11:24:40.735Z,9.00
2019-04-10T11:27:09.994Z,8.90
2019-04-10T11:29:39.631Z,8.90
2019-04-10T11:32:09.267Z,8.90
2019-04-10T11:34:38.314Z,8.90
2019-04-10T11:37:19.872Z,9.00
2019-04-10T11:39:42.764Z,8.90
2019-04-10T11:42:09.962Z,9.20
2019-04-10T11:44:39.677Z,9.40
2019-04-10T11:47:10.490Z,9.50
2019-04-10T11:49:43.024Z,9.70
2019-04-10T11:52:11.150Z,9.80
2019-04-10T11:54:41.591Z,9.60
2019-04-10T11:57:13.205Z,9.60
2019-04-10T11:59:44.751Z,9.50
2019-04-10T12:02:14.278Z,9.60
2019-04-10T12:04:50.407Z,9.50
2019-04-10T12:07:48.086Z,9.60
2019-04-10T12:12:14.995Z,9.40
2019-04-10T12:14:43.733Z,9.40
2019-04-10T12:17:12.380Z,9.50
2019-04-10T12:19:41.071Z,9.60
2019-04-10T12:22:09.752Z,9.70
2019-04-10T12:24:38.477Z,9.60
2019-04-10T12:27:07.112Z,9.60
2019-04-10T12:29:35.826Z,9.70
2019-04-10T12:32:04.490Z,9.90
2019-04-10T12:34:34.130Z,9.80
2019-04-10T12:37:03.110Z,10.10
2019-04-10T12:39:32.219Z,10.40
2019-04-10T12:42:01.186Z,10.60
2019-04-10T12:44:29.857Z,10.50
2019-04-10T12:46:59.499Z,10.00
2019-04-10T12:49:29.680Z,9.70
2019-04-10T12:51:58.612Z,9.50
2019-04-10T12:54:28.014Z,9.60
2019-04-10T12:56:56.988Z,9.70
2019-04-10T12:59:25.707Z,9.80
2019-04-10T13:01:55.410Z,9.80
2019-04-10T13:04:24.697Z,9.90
2019-04-10T13:06:52.825Z,9.90
2019-04-10T13:09:22.179Z,9.90
2019-04-10T13:11:51.157Z,9.90
2019-04-10T13:14:19.841Z,9.90
2019-04-10T13:16:48.429Z,9.90
2019-04-10T13:19:17.052Z,10.00
2019-04-10T13:21:46.697Z,10.40
2019-04-10T13:24:15.682Z,10.70
2019-04-10T13:26:44.375Z,10.70
2019-04-10T13:29:14.109Z,10.50
2019-04-10T13:31:42.828Z,10.50
2019-04-10T13:34:11.410Z,10.60
2019-04-10T13:36:40.075Z,10.40
2019-04-10T13:39:12.842Z,10.60
2019-04-10T13:41:42.867Z,10.70
2019-04-10T13:44:12.095Z,11.00
2019-04-10T13:46:40.688Z,11.20
2019-04-10T13:49:09.426Z,11.30
2019-04-10T13:51:37.404Z,11.60
2019-04-10T13:54:06.270Z,11.70
2019-04-10T13:56:34.075Z,11.50
2019-04-10T13:59:02.641Z,11.70
2019-04-10T14:01:35.676Z,12.30
2019-04-10T14:04:05.036Z,12.40
2019-04-10T14:06:33.955Z,12.00
2019-04-10T14:09:17.523Z,11.70
2019-04-10T14:11:33.324Z,11.60
2019-04-10T14:14:02.442Z,11.30
2019-04-10T14:16:31.291Z,13.60
2019-04-10T14:18:59.685Z,14.40
2019-04-10T14:21:29.079Z,17.60
2019-04-10T14:23:57.985Z,20.40
2019-04-10T14:26:42.000Z,22.80
2019-04-10T14:29:05.685Z,24.10
2019-04-10T14:31:36.413Z,24.10
2019-04-10T14:34:06.573Z,24.10
2019-04-10T14:36:35.996Z,25.00
2019-04-10T14:39:13.358Z,24.40
2019-04-10T14:41:38.250Z,23.50
2019-04-10T14:44:06.921Z,20.30
2019-04-10T14:46:34.642Z,18.10
2019-04-10T14:49:03.509Z,16.30
2019-04-10T14:51:32.470Z,15.80
2019-04-10T14:54:01.708Z,17.20
2019-04-10T14:56:30.518Z,19.50
2019-04-10T14:58:59.742Z,19.80
2019-04-10T15:01:30.189Z,19.40
2019-04-10T15:03:58.915Z,18.40
2019-04-10T15:06:27.535Z,18.80
2019-04-10T15:08:56.215Z,19.60
2019-04-10T15:11:24.848Z,19.30
2019-04-10T15:13:53.557Z,20.00
2019-04-10T15:16:23.110Z,19.90
2019-04-10T15:18:52.042Z,20.60
2019-04-10T15:21:20.880Z,21.00
2019-04-10T15:23:49.602Z,20.50
2019-04-10T15:26:18.275Z,19.70
2019-04-10T15:28:47.721Z,20.00
2019-04-10T15:31:17.282Z,21.30
2019-04-10T15:33:46.630Z,21.20
2019-04-10T15:36:15.809Z,21.60
2019-04-10T15:38:44.493Z,19.50
2019-04-10T15:41:13.165Z,19.70
2019-04-10T15:43:41.787Z,19.90
2019-04-10T15:46:10.786Z,19.80
2019-04-10T15:48:39.522Z,19.60
2019-04-10T15:51:08.237Z,18.80
2019-04-10T15:53:36.839Z,18.60
2019-04-10T15:56:05.569Z,18.20
2019-04-10T15:58:35.327Z,18.30
2019-04-10T16:01:05.717Z,18.50
2019-04-10T16:03:34.534Z,17.90
2019-04-10T16:06:03.934Z,18.00
2019-04-10T16:08:32.995Z,17.90
2019-04-10T16:11:12.396Z,17.90
2019-04-10T16:13:46.388Z,17.80
2019-04-10T16:16:34.703Z,17.60
2019-04-10T16:19:22.235Z,17.70
2019-04-10T16:21:52.189Z,17.50
2019-04-10T16:24:22.889Z,17.00
2019-04-10T16:26:51.822Z,15.60
2019-04-10T16:29:20.493Z,14.30
2019-04-10T16:31:50.208Z,13.90
2019-04-10T16:34:19.818Z,13.40
2019-04-10T16:36:48.540Z,12.60
2019-04-10T16:39:19.695Z,12.40
2019-04-10T16:41:48.677Z,12.10
2019-04-10T16:44:17.339Z,11.70
2019-04-10T16:46:49.218Z,11.60
2019-04-10T16:49:16.964Z,11.30
2019-04-10T16:51:44.835Z,11.30
2019-04-10T16:54:13.172Z,10.90
2019-04-10T16:56:42.255Z,10.60
2019-04-10T16:59:12.181Z,10.50
2019-04-10T17:01:40.819Z,10.50
2019-04-10T17:04:09.422Z,10.40
2019-04-10T17:06:38.701Z,10.30
2019-04-10T17:09:10.282Z,10.30
2019-04-10T17:11:39.221Z,10.10
2019-04-10T17:14:07.884Z,9.90
2019-04-10T17:16:37.698Z,9.60
2019-04-10T17:19:07.696Z,9.60
2019-04-10T17:21:36.656Z,9.60
2019-04-10T17:24:05.386Z,9.60
2019-04-10T17:26:35.060Z,9.50
2019-04-10T17:29:04.975Z,9.40
2019-04-10T17:31:35.018Z,9.30
2019-04-10T17:34:03.968Z,9.20
2019-04-10T17:36:32.853Z,9.10
2019-04-10T17:39:02.842Z,9.10
2019-04-10T17:41:31.887Z,9.00
2019-04-10T17:44:02.394Z,8.90
2019-04-10T17:46:31.282Z,8.80
2019-04-10T17:49:01.098Z,8.70
2019-04-10T17:51:30.399Z,8.70
2019-04-10T17:53:58.159Z,8.70
2019-04-10T17:56:26.568Z,8.70
2019-04-10T17:58:56.042Z,8.50
2019-04-10T18:01:27.166Z,8.50
2019-04-10T18:03:59.855Z,8.60
2019-04-10T18:06:27.691Z,8.50
2019-04-10T18:08:57.058Z,8.30
2019-04-10T18:11:26.089Z,8.30
2019-04-10T18:13:55.234Z,8.20
2019-04-10T18:16:25.504Z,8.20
2019-04-10T18:18:55.811Z,8.10
2019-04-10T18:21:24.789Z,8.10
2019-04-10T18:23:53.613Z,8.00
2019-04-10T18:26:22.219Z,7.80
2019-04-10T18:28:51.895Z,7.60
2019-04-10T18:31:23.708Z,7.60
2019-04-10T18:33:51.723Z,7.60
2019-04-10T18:36:20.414Z,7.60
2019-04-10T18:38:49.917Z,7.60
2019-04-10T18:41:19.957Z,7.50
2019-04-10T18:43:48.658Z,7.40
2019-04-10T18:46:19.505Z,7.40
2019-04-10T18:48:48.548Z,7.40
2019-04-10T18:51:18.402Z,7.30
2019-04-10T18:53:47.093Z,7.30
2019-04-10T18:56:16.673Z,7.30
2019-04-10T18:58:56.475Z,7.20
2019-04-10T19:01:32.624Z,7.20
2019-04-10T19:04:06.020Z,7.20
2019-04-10T19:06:49.676Z,7.20
2019-04-10T19:09:24.559Z,7.20
2019-04-10T19:11:50.569Z,7.20
2019-04-10T19:14:20.727Z,7.10
2019-04-10T19:16:49.937Z,7.10
2019-04-10T19:19:18.593Z,7.10
2019-04-10T19:21:48.456Z,7.10
2019-04-10T19:24:18.032Z,7.00
2019-04-10T19:26:47.415Z,6.80
2019-04-10T19:29:15.183Z,6.80
2019-04-10T19:31:45.731Z,6.90
2019-04-10T19:34:14.937Z,6.80
2019-04-10T19:36:43.902Z,6.70
2019-04-10T19:39:11.799Z,6.70
2019-04-10T19:41:41.888Z,6.70
2019-04-10T19:44:10.885Z,6.70
2019-04-10T19:46:39.852Z,6.70
2019-04-10T19:49:08.331Z,6.70
2019-04-10T19:51:37.029Z,6.70
2019-04-10T19:54:07.481Z,6.70
2019-04-10T19:56:36.976Z,6.60
2019-04-10T19:59:06.331Z,6.60
2019-04-10T20:01:34.110Z,6.60
2019-04-10T20:04:03.966Z,6.50
2019-04-10T20:06:33.247Z,6.50
2019-04-10T20:09:01.618Z,6.60
2019-04-10T20:11:37.536Z,6.50
2019-04-10T20:14:01.608Z,6.50
2019-04-10T20:16:31.262Z,6.60
2019-04-10T20:19:01.248Z,6.60
2019-04-10T20:21:30.291Z,6.60
2019-04-10T20:23:58.886Z,6.60
2019-04-10T20:26:27.497Z,6.60
2019-04-10T20:28:57.320Z,6.60
2019-04-10T20:31:29.007Z,6.50
2019-04-10T20:33:59.090Z,6.60
2019-04-10T20:36:28.999Z,6.50
2019-04-10T20:38:59.043Z,6.50
2019-04-10T20:41:28.778Z,6.40
2019-04-10T20:43:57.782Z,6.40
2019-04-10T20:46:26.459Z,6.30
2019-04-10T20:48:55.102Z,6.30
2019-04-10T20:51:24.869Z,6.10
2019-04-10T20:53:53.945Z,6.30
2019-04-10T20:56:22.644Z,6.30
2019-04-10T20:58:51.286Z,6.30
2019-04-10T21:01:20.304Z,6.30
2019-04-10T21:03:50.205Z,6.30
2019-04-10T21:06:19.155Z,6.30
2019-04-10T21:08:47.831Z,6.30
2019-04-10T21:11:16.550Z,6.30
2019-04-10T21:13:45.269Z,6.10
2019-04-10T21:16:14.033Z,6.10
2019-04-10T21:18:42.616Z,6.10
2019-04-10T21:21:12.278Z,6.00
2019-04-10T21:23:42.089Z,6.00
2019-04-10T21:26:12.131Z,6.10
2019-04-10T21:28:41.587Z,6.10
2019-04-10T21:31:28.520Z,6.10
2019-04-10T21:34:05.569Z,6.10
2019-04-10T21:36:36.976Z,6.20
2019-04-10T21:39:07.482Z,6.10
2019-04-10T21:41:36.885Z,6.10
2019-04-10T21:44:06.431Z,6.00
2019-04-10T21:46:35.371Z,6.10
2019-04-10T21:49:04.044Z,6.10
2019-04-10T21:51:33.601Z,6.00
2019-04-10T21:54:02.845Z,6.10
2019-04-10T21:56:31.515Z,6.00
2019-04-10T21:59:01.168Z,5.90
2019-04-10T22:01:30.480Z,5.90
2019-04-10T22:03:59.132Z,5.90
2019-04-10T22:06:39.450Z,5.80
2019-04-10T22:09:14.550Z,5.70
2019-04-10T22:11:48.014Z,5.80
2019-04-10T22:14:17.197Z,5.80
2019-04-10T22:16:46.351Z,5.80
2019-04-10T22:19:16.606Z,5.80
2019-04-10T22:21:46.196Z,5.80
2019-04-10T22:24:15.744Z,5.80
2019-04-10T22:26:44.775Z,5.70
2019-04-10T22:29:14.156Z,5.60
2019-04-10T22:31:43.768Z,5.60
2019-04-10T22:34:13.638Z,5.60
2019-04-10T22:36:42.556Z,5.50
2019-04-10T22:39:12.895Z,5.60
2019-04-10T22:41:42.787Z,5.60
2019-04-10T22:44:11.834Z,5.50
2019-04-10T22:46:40.511Z,5.60
2019-04-10T22:49:10.315Z,5.60
2019-04-10T22:51:39.770Z,5.60
2019-04-10T22:54:08.829Z,5.60
2019-04-10T22:56:37.816Z,5.70
2019-04-10T22:59:06.183Z,5.60
2019-04-10T23:01:35.480Z,5.60
2019-04-10T23:04:04.560Z,5.60
2019-04-10T23:06:33.351Z,5.60
2019-04-10T23:09:02.160Z,5.60
2019-04-10T23:11:38.459Z,5.60
2019-04-10T23:14:02.529Z,5.60
2019-04-10T23:16:32.405Z,5.70
2019-04-10T23:19:01.584Z,5.70
2019-04-10T23:21:30.387Z,5.80
2019-04-10T23:23:59.087Z,5.60
2019-04-10T23:26:27.755Z,5.70
2019-04-10T23:28:56.432Z,5.60
2019-04-10T23:31:25.734Z,5.60
2019-04-10T23:33:54.699Z,5.60
2019-04-10T23:36:24.639Z,5.60
2019-04-10T23:38:53.636Z,5.60
2019-04-10T23:41:23.251Z,5.60
2019-04-10T23:43:52.259Z,5.60
2019-04-10T23:46:22.141Z,5.60
2019-04-10T23:48:51.223Z,5.60
2019-04-10T23:51:21.064Z,5.60
2019-04-10T23:53:50.932Z,5.60
2019-04-10T23:56:20.040Z,5.60
2019-04-10T23:58:49.187Z,5.60
